sensor_id;sensor_type;location;lat;lon;timestamp;temperature;humidity
22795;DHT22;11564;50.920;11.612;2023-06-14T00:01:18;12.30;91.90
22795;DHT22;11564;50.920;11.612;2023-06-14T00:03:45;12.30;92.30
22795;DHT22;11564;50.920;11.612;2023-06-14T00:06:13;12.20;92.60
22795;DHT22;11564;50.920;11.612;2023-06-14T00:08:38;12.10;93.40
22795;DHT22;11564;50.920;11.612;2023-06-14T00:11:05;12.00;93.90
22795;DHT22;11564;50.920;11.612;2023-06-14T00:13:31;12.00;94.80
22795;DHT22;11564;50.920;11.612;2023-06-14T00:15:57;12.00;95.50
22795;DHT22;11564;50.920;11.612;2023-06-14T00:18:23;11.90;96.70
22795;DHT22;11564;50.920;11.612;2023-06-14T00:20:55;11.90;97.80
22795;DHT22;11564;50.920;11.612;2023-06-14T00:23:21;11.80;98.60
22795;DHT22;11564;50.920;11.612;2023-06-14T00:25:47;11.70;99.50
22795;DHT22;11564;50.920;11.612;2023-06-14T00:28:13;11.70;99.90
22795;DHT22;11564;50.920;11.612;2023-06-14T00:30:38;11.70;99.90
22795;DHT22;11564;50.920;11.612;2023-06-14T00:33:04;11.70;99.90
22795;DHT22;11564;50.920;11.612;2023-06-14T00:35:30;11.70;99.90
22795;DHT22;11564;50.920;11.612;2023-06-14T00:37:56;11.60;99.90
22795;DHT22;11564;50.920;11.612;2023-06-14T00:40:22;11.60;99.90
22795;DHT22;11564;50.920;11.612;2023-06-14T00:42:47;11.70;99.90
22795;DHT22;11564;50.920;11.612;2023-06-14T00:45:13;11.80;99.90
22795;DHT22;11564;50.920;11.612;2023-06-14T00:47:41;11.70;99.90
22795;DHT22;11564;50.920;11.612;2023-06-14T00:50:08;11.70;99.90
22795;DHT22;11564;50.920;11.612;2023-06-14T00:52:34;11.70;99.90
22795;DHT22;11564;50.920;11.612;2023-06-14T00:55:00;11.60;99.90
22795;DHT22;11564;50.920;11.612;2023-06-14T00:57:26;11.70;99.90
22795;DHT22;11564;50.920;11.612;2023-06-14T00:59:52;11.60;99.90
22795;DHT22;11564;50.920;11.612;2023-06-14T01:02:18;11.60;99.90
22795;DHT22;11564;50.920;11.612;2023-06-14T01:04:46;11.70;99.90
22795;DHT22;11564;50.920;11.612;2023-06-14T01:15:07;11.80;99.90
22795;DHT22;11564;50.920;11.612;2023-06-14T01:17:33;11.70;99.90
22795;DHT22;11564;50.920;11.612;2023-06-14T01:20:02;11.70;99.90
22795;DHT22;11564;50.920;11.612;2023-06-14T01:22:28;11.60;99.90
22795;DHT22;11564;50.920;11.612;2023-06-14T01:24:54;11.50;99.90
22795;DHT22;11564;50.920;11.612;2023-06-14T01:27:24;11.50;99.90
22795;DHT22;11564;50.920;11.612;2023-06-14T01:29:55;11.40;99.90
22795;DHT22;11564;50.920;11.612;2023-06-14T01:32:24;11.30;99.90
22795;DHT22;11564;50.920;11.612;2023-06-14T01:34:50;11.20;99.90
22795;DHT22;11564;50.920;11.612;2023-06-14T01:37:17;11.20;99.90
22795;DHT22;11564;50.920;11.612;2023-06-14T01:39:43;11.10;99.90
22795;DHT22;11564;50.920;11.612;2023-06-14T01:42:10;11.10;99.90
22795;DHT22;11564;50.920;11.612;2023-06-14T01:44:38;11.00;99.90
22795;DHT22;11564;50.920;11.612;2023-06-14T01:47:04;11.00;99.90
22795;DHT22;11564;50.920;11.612;2023-06-14T01:49:33;10.90;99.90
22795;DHT22;11564;50.920;11.612;2023-06-14T01:52:00;10.80;99.90
22795;DHT22;11564;50.920;11.612;2023-06-14T01:54:26;10.80;99.90
22795;DHT22;11564;50.920;11.612;2023-06-14T01:56:52;10.70;99.90
22795;DHT22;11564;50.920;11.612;2023-06-14T01:59:18;10.70;99.90
22795;DHT22;11564;50.920;11.612;2023-06-14T02:01:44;10.70;99.90
22795;DHT22;11564;50.920;11.612;2023-06-14T02:04:11;10.70;99.90
22795;DHT22;11564;50.920;11.612;2023-06-14T02:06:37;10.60;99.90
22795;DHT22;11564;50.920;11.612;2023-06-14T02:09:03;10.50;99.90
22795;DHT22;11564;50.920;11.612;2023-06-14T02:11:29;10.40;99.90
22795;DHT22;11564;50.920;11.612;2023-06-14T02:13:55;10.30;99.90
22795;DHT22;11564;50.920;11.612;2023-06-14T02:16:21;10.20;99.90
22795;DHT22;11564;50.920;11.612;2023-06-14T02:18:47;10.20;99.90
22795;DHT22;11564;50.920;11.612;2023-06-14T02:21:14;10.20;99.90
22795;DHT22;11564;50.920;11.612;2023-06-14T02:23:39;10.10;99.90
22795;DHT22;11564;50.920;11.612;2023-06-14T02:26:05;10.10;99.90
22795;DHT22;11564;50.920;11.612;2023-06-14T02:28:31;10.10;99.90
22795;DHT22;11564;50.920;11.612;2023-06-14T02:30:57;10.10;99.90
22795;DHT22;11564;50.920;11.612;2023-06-14T02:33:22;10.00;99.90
22795;DHT22;11564;50.920;11.612;2023-06-14T02:35:48;9.90;99.90
22795;DHT22;11564;50.920;11.612;2023-06-14T02:38:13;9.90;99.90
22795;DHT22;11564;50.920;11.612;2023-06-14T02:40:39;9.80;99.90
22795;DHT22;11564;50.920;11.612;2023-06-14T02:43:07;9.70;99.90
22795;DHT22;11564;50.920;11.612;2023-06-14T02:45:33;9.70;99.90
22795;DHT22;11564;50.920;11.612;2023-06-14T02:47:59;9.60;99.90
22795;DHT22;11564;50.920;11.612;2023-06-14T02:50:24;9.60;99.90
22795;DHT22;11564;50.920;11.612;2023-06-14T02:52:50;9.50;99.90
22795;DHT22;11564;50.920;11.612;2023-06-14T02:55:16;9.50;99.90
22795;DHT22;11564;50.920;11.612;2023-06-14T02:57:41;9.40;99.90
22795;DHT22;11564;50.920;11.612;2023-06-14T03:00:07;9.30;99.90
22795;DHT22;11564;50.920;11.612;2023-06-14T03:02:38;9.40;99.90
22795;DHT22;11564;50.920;11.612;2023-06-14T03:05:04;9.30;99.90
22795;DHT22;11564;50.920;11.612;2023-06-14T03:07:32;9.30;99.90
22795;DHT22;11564;50.920;11.612;2023-06-14T03:09:58;9.30;99.90
22795;DHT22;11564;50.920;11.612;2023-06-14T03:12:23;9.40;99.90
22795;DHT22;11564;50.920;11.612;2023-06-14T03:14:49;9.40;99.90
22795;DHT22;11564;50.920;11.612;2023-06-14T03:17:16;9.50;99.90
22795;DHT22;11564;50.920;11.612;2023-06-14T03:19:43;9.50;99.90
22795;DHT22;11564;50.920;11.612;2023-06-14T03:22:09;9.50;99.90
22795;DHT22;11564;50.920;11.612;2023-06-14T03:24:37;9.60;99.90
22795;DHT22;11564;50.920;11.612;2023-06-14T03:27:03;9.60;99.90
22795;DHT22;11564;50.920;11.612;2023-06-14T03:29:28;9.60;99.90
22795;DHT22;11564;50.920;11.612;2023-06-14T03:32:02;9.70;99.90
22795;DHT22;11564;50.920;11.612;2023-06-14T03:34:28;9.80;99.90
22795;DHT22;11564;50.920;11.612;2023-06-14T03:36:53;9.80;99.90
22795;DHT22;11564;50.920;11.612;2023-06-14T03:39:19;9.80;99.90
22795;DHT22;11564;50.920;11.612;2023-06-14T03:41:45;9.80;99.90
22795;DHT22;11564;50.920;11.612;2023-06-14T03:44:11;9.90;99.90
22795;DHT22;11564;50.920;11.612;2023-06-14T03:46:37;9.90;99.90
22795;DHT22;11564;50.920;11.612;2023-06-14T03:49:02;10.00;99.90
22795;DHT22;11564;50.920;11.612;2023-06-14T03:51:28;10.10;99.90
22795;DHT22;11564;50.920;11.612;2023-06-14T03:53:54;10.10;99.90
22795;DHT22;11564;50.920;11.612;2023-06-14T03:56:21;10.10;99.90
22795;DHT22;11564;50.920;11.612;2023-06-14T03:58:46;10.10;99.90
22795;DHT22;11564;50.920;11.612;2023-06-14T04:01:12;10.20;99.90
22795;DHT22;11564;50.920;11.612;2023-06-14T04:03:38;10.20;99.90
22795;DHT22;11564;50.920;11.612;2023-06-14T04:06:05;10.20;99.90
22795;DHT22;11564;50.920;11.612;2023-06-14T04:08:31;10.20;99.90
22795;DHT22;11564;50.920;11.612;2023-06-14T04:10:57;10.30;99.90
22795;DHT22;11564;50.920;11.612;2023-06-14T04:13:23;10.50;99.90
22795;DHT22;11564;50.920;11.612;2023-06-14T04:15:48;10.50;99.90
22795;DHT22;11564;50.920;11.612;2023-06-14T04:18:14;10.50;99.90
22795;DHT22;11564;50.920;11.612;2023-06-14T04:20:40;10.60;99.90
22795;DHT22;11564;50.920;11.612;2023-06-14T04:23:16;10.60;99.90
22795;DHT22;11564;50.920;11.612;2023-06-14T04:25:44;10.60;99.90
22795;DHT22;11564;50.920;11.612;2023-06-14T04:28:13;10.50;99.90
22795;DHT22;11564;50.920;11.612;2023-06-14T04:30:39;10.50;99.90
22795;DHT22;11564;50.920;11.612;2023-06-14T04:33:06;10.50;99.90
22795;DHT22;11564;50.920;11.612;2023-06-14T04:35:32;10.50;99.90
22795;DHT22;11564;50.920;11.612;2023-06-14T04:37:58;10.50;99.90
22795;DHT22;11564;50.920;11.612;2023-06-14T04:40:24;10.50;99.90
22795;DHT22;11564;50.920;11.612;2023-06-14T04:42:50;10.60;99.90
22795;DHT22;11564;50.920;11.612;2023-06-14T04:45:16;10.70;99.90
22795;DHT22;11564;50.920;11.612;2023-06-14T04:47:42;10.80;99.90
22795;DHT22;11564;50.920;11.612;2023-06-14T04:50:10;10.90;99.90
22795;DHT22;11564;50.920;11.612;2023-06-14T04:52:36;11.00;99.90
22795;DHT22;11564;50.920;11.612;2023-06-14T04:55:03;11.00;99.90
22795;DHT22;11564;50.920;11.612;2023-06-14T04:57:29;11.10;99.90
22795;DHT22;11564;50.920;11.612;2023-06-14T04:59:54;11.10;99.90
22795;DHT22;11564;50.920;11.612;2023-06-14T05:02:30;11.20;99.90
22795;DHT22;11564;50.920;11.612;2023-06-14T05:04:59;11.20;99.90
22795;DHT22;11564;50.920;11.612;2023-06-14T05:07:27;11.40;99.90
22795;DHT22;11564;50.920;11.612;2023-06-14T05:09:52;11.40;99.90
22795;DHT22;11564;50.920;11.612;2023-06-14T05:12:18;11.50;99.90
22795;DHT22;11564;50.920;11.612;2023-06-14T05:14:44;11.60;99.90
22795;DHT22;11564;50.920;11.612;2023-06-14T05:17:10;11.90;99.90
22795;DHT22;11564;50.920;11.612;2023-06-14T05:19:36;12.00;99.90
22795;DHT22;11564;50.920;11.612;2023-06-14T05:22:01;12.20;99.90
22795;DHT22;11564;50.920;11.612;2023-06-14T05:24:28;12.40;99.90
22795;DHT22;11564;50.920;11.612;2023-06-14T05:26:56;12.40;99.90
22795;DHT22;11564;50.920;11.612;2023-06-14T05:29:22;12.50;99.90
22795;DHT22;11564;50.920;11.612;2023-06-14T05:31:47;12.60;99.90
22795;DHT22;11564;50.920;11.612;2023-06-14T05:34:13;12.60;99.90
22795;DHT22;11564;50.920;11.612;2023-06-14T05:36:38;12.70;99.90
22795;DHT22;11564;50.920;11.612;2023-06-14T05:39:04;12.60;99.90
22795;DHT22;11564;50.920;11.612;2023-06-14T05:41:31;12.60;99.90
22795;DHT22;11564;50.920;11.612;2023-06-14T05:43:57;12.60;99.90
22795;DHT22;11564;50.920;11.612;2023-06-14T05:46:23;12.70;99.90
22795;DHT22;11564;50.920;11.612;2023-06-14T05:48:52;12.70;99.90
22795;DHT22;11564;50.920;11.612;2023-06-14T05:51:18;12.90;99.90
22795;DHT22;11564;50.920;11.612;2023-06-14T05:53:48;12.90;99.90
22795;DHT22;11564;50.920;11.612;2023-06-14T05:56:14;13.10;99.90
22795;DHT22;11564;50.920;11.612;2023-06-14T05:58:40;13.20;99.90
22795;DHT22;11564;50.920;11.612;2023-06-14T06:01:06;13.20;99.90
22795;DHT22;11564;50.920;11.612;2023-06-14T06:03:32;13.20;99.90
22795;DHT22;11564;50.920;11.612;2023-06-14T06:05:58;13.40;99.90
22795;DHT22;11564;50.920;11.612;2023-06-14T06:08:24;13.40;99.90
22795;DHT22;11564;50.920;11.612;2023-06-14T06:10:50;13.40;99.90
22795;DHT22;11564;50.920;11.612;2023-06-14T06:13:16;13.60;99.90
22795;DHT22;11564;50.920;11.612;2023-06-14T06:15:41;13.70;99.90
22795;DHT22;11564;50.920;11.612;2023-06-14T06:18:07;13.70;99.90
22795;DHT22;11564;50.920;11.612;2023-06-14T06:20:32;13.80;99.90
22795;DHT22;11564;50.920;11.612;2023-06-14T06:22:58;13.80;99.90
22795;DHT22;11564;50.920;11.612;2023-06-14T06:25:25;13.90;99.90
22795;DHT22;11564;50.920;11.612;2023-06-14T06:27:53;14.00;99.90
22795;DHT22;11564;50.920;11.612;2023-06-14T06:30:19;14.10;99.90
22795;DHT22;11564;50.920;11.612;2023-06-14T06:32:45;14.10;99.90
22795;DHT22;11564;50.920;11.612;2023-06-14T06:35:11;14.10;99.90
22795;DHT22;11564;50.920;11.612;2023-06-14T06:37:38;14.00;99.90
22795;DHT22;11564;50.920;11.612;2023-06-14T06:40:04;14.10;99.90
22795;DHT22;11564;50.920;11.612;2023-06-14T06:42:31;14.20;99.90
22795;DHT22;11564;50.920;11.612;2023-06-14T06:44:57;14.20;99.90
22795;DHT22;11564;50.920;11.612;2023-06-14T06:47:23;14.20;99.90
22795;DHT22;11564;50.920;11.612;2023-06-14T06:49:50;14.20;99.90
22795;DHT22;11564;50.920;11.612;2023-06-14T06:52:16;14.20;99.90
22795;DHT22;11564;50.920;11.612;2023-06-14T06:54:41;14.60;99.90
22795;DHT22;11564;50.920;11.612;2023-06-14T06:57:07;14.80;99.90
22795;DHT22;11564;50.920;11.612;2023-06-14T06:59:33;14.70;99.90
22795;DHT22;11564;50.920;11.612;2023-06-14T07:01:59;14.60;99.90
22795;DHT22;11564;50.920;11.612;2023-06-14T07:04:25;14.80;99.90
22795;DHT22;11564;50.920;11.612;2023-06-14T07:06:50;14.90;99.90
22795;DHT22;11564;50.920;11.612;2023-06-14T07:09:16;15.00;99.90
22795;DHT22;11564;50.920;11.612;2023-06-14T07:11:46;14.90;99.90
22795;DHT22;11564;50.920;11.612;2023-06-14T07:14:12;15.20;99.90
22795;DHT22;11564;50.920;11.612;2023-06-14T07:16:38;16.00;99.90
22795;DHT22;11564;50.920;11.612;2023-06-14T07:19:03;16.30;99.90
22795;DHT22;11564;50.920;11.612;2023-06-14T07:21:29;16.50;99.90
22795;DHT22;11564;50.920;11.612;2023-06-14T07:23:55;16.40;99.90
22795;DHT22;11564;50.920;11.612;2023-06-14T07:26:21;16.50;99.90
22795;DHT22;11564;50.920;11.612;2023-06-14T07:28:47;16.70;99.90
22795;DHT22;11564;50.920;11.612;2023-06-14T07:31:14;16.90;99.90
22795;DHT22;11564;50.920;11.612;2023-06-14T07:33:41;17.20;99.90
22795;DHT22;11564;50.920;11.612;2023-06-14T07:36:06;17.60;99.90
22795;DHT22;11564;50.920;11.612;2023-06-14T07:38:32;17.70;99.90
22795;DHT22;11564;50.920;11.612;2023-06-14T07:40:58;17.80;99.90
22795;DHT22;11564;50.920;11.612;2023-06-14T07:43:23;17.70;99.90
22795;DHT22;11564;50.920;11.612;2023-06-14T07:45:49;17.80;99.90
22795;DHT22;11564;50.920;11.612;2023-06-14T07:48:14;17.80;99.90
22795;DHT22;11564;50.920;11.612;2023-06-14T07:50:40;17.90;99.90
22795;DHT22;11564;50.920;11.612;2023-06-14T07:53:06;18.00;99.30
22795;DHT22;11564;50.920;11.612;2023-06-14T07:55:32;18.10;99.40
22795;DHT22;11564;50.920;11.612;2023-06-14T07:57:58;18.20;98.30
22795;DHT22;11564;50.920;11.612;2023-06-14T08:00:24;18.30;98.10
22795;DHT22;11564;50.920;11.612;2023-06-14T08:02:50;18.20;97.60
22795;DHT22;11564;50.920;11.612;2023-06-14T08:05:17;18.30;97.80
22795;DHT22;11564;50.920;11.612;2023-06-14T08:07:43;18.40;97.10
22795;DHT22;11564;50.920;11.612;2023-06-14T08:10:08;18.50;96.70
22795;DHT22;11564;50.920;11.612;2023-06-14T08:12:34;18.40;96.90
22795;DHT22;11564;50.920;11.612;2023-06-14T08:15:00;18.50;96.40
22795;DHT22;11564;50.920;11.612;2023-06-14T08:17:26;18.70;96.30
22795;DHT22;11564;50.920;11.612;2023-06-14T08:19:52;18.80;94.40
22795;DHT22;11564;50.920;11.612;2023-06-14T08:22:20;19.00;95.10
22795;DHT22;11564;50.920;11.612;2023-06-14T08:24:47;18.90;93.60
22795;DHT22;11564;50.920;11.612;2023-06-14T08:27:13;19.10;93.50
22795;DHT22;11564;50.920;11.612;2023-06-14T08:29:39;19.20;93.40
22795;DHT22;11564;50.920;11.612;2023-06-14T08:32:06;19.40;92.70
22795;DHT22;11564;50.920;11.612;2023-06-14T08:34:32;19.60;91.90
22795;DHT22;11564;50.920;11.612;2023-06-14T08:36:57;19.60;92.40
22795;DHT22;11564;50.920;11.612;2023-06-14T08:39:23;19.70;91.50
22795;DHT22;11564;50.920;11.612;2023-06-14T08:41:50;19.70;91.20
22795;DHT22;11564;50.920;11.612;2023-06-14T08:44:17;19.80;91.20
22795;DHT22;11564;50.920;11.612;2023-06-14T08:46:43;20.00;91.00
22795;DHT22;11564;50.920;11.612;2023-06-14T08:49:12;20.10;90.60
22795;DHT22;11564;50.920;11.612;2023-06-14T08:51:38;20.20;89.50
22795;DHT22;11564;50.920;11.612;2023-06-14T08:54:06;20.10;88.70
22795;DHT22;11564;50.920;11.612;2023-06-14T08:56:32;20.10;88.70
22795;DHT22;11564;50.920;11.612;2023-06-14T08:59:00;20.20;88.20
22795;DHT22;11564;50.920;11.612;2023-06-14T09:01:34;20.30;88.20
22795;DHT22;11564;50.920;11.612;2023-06-14T09:04:00;20.40;86.70
22795;DHT22;11564;50.920;11.612;2023-06-14T09:06:26;20.60;84.80
22795;DHT22;11564;50.920;11.612;2023-06-14T09:08:54;20.80;85.30
22795;DHT22;11564;50.920;11.612;2023-06-14T09:11:22;21.00;84.60
22795;DHT22;11564;50.920;11.612;2023-06-14T09:13:49;21.10;83.50
22795;DHT22;11564;50.920;11.612;2023-06-14T09:16:15;21.30;82.60
22795;DHT22;11564;50.920;11.612;2023-06-14T09:18:45;21.40;83.10
22795;DHT22;11564;50.920;11.612;2023-06-14T09:21:17;21.30;82.30
22795;DHT22;11564;50.920;11.612;2023-06-14T09:23:44;21.40;82.20
22795;DHT22;11564;50.920;11.612;2023-06-14T09:26:12;21.50;82.10
22795;DHT22;11564;50.920;11.612;2023-06-14T09:28:45;21.50;80.80
22795;DHT22;11564;50.920;11.612;2023-06-14T09:31:12;21.60;81.20
22795;DHT22;11564;50.920;11.612;2023-06-14T09:33:38;21.70;81.00
22795;DHT22;11564;50.920;11.612;2023-06-14T09:36:11;21.60;80.00
22795;DHT22;11564;50.920;11.612;2023-06-14T09:38:40;21.60;77.90
22795;DHT22;11564;50.920;11.612;2023-06-14T09:41:06;21.70;78.60
22795;DHT22;11564;50.920;11.612;2023-06-14T09:43:33;21.70;77.20
22795;DHT22;11564;50.920;11.612;2023-06-14T09:46:01;21.80;77.90
22795;DHT22;11564;50.920;11.612;2023-06-14T09:48:26;21.90;77.10
22795;DHT22;11564;50.920;11.612;2023-06-14T09:50:55;21.80;76.40
22795;DHT22;11564;50.920;11.612;2023-06-14T09:53:24;21.80;77.90
22795;DHT22;11564;50.920;11.612;2023-06-14T09:55:52;22.00;77.60
22795;DHT22;11564;50.920;11.612;2023-06-14T09:58:20;22.00;74.90
22795;DHT22;11564;50.920;11.612;2023-06-14T10:00:50;22.10;74.00
22795;DHT22;11564;50.920;11.612;2023-06-14T10:03:23;22.20;74.20
22795;DHT22;11564;50.920;11.612;2023-06-14T10:05:50;22.50;73.60
22795;DHT22;11564;50.920;11.612;2023-06-14T10:08:18;22.80;74.30
22795;DHT22;11564;50.920;11.612;2023-06-14T10:10:46;23.10;73.30
22795;DHT22;11564;50.920;11.612;2023-06-14T10:13:12;23.60;71.40
22795;DHT22;11564;50.920;11.612;2023-06-14T10:18:31;23.50;70.80
22795;DHT22;11564;50.920;11.612;2023-06-14T10:23:26;23.70;70.80
22795;DHT22;11564;50.920;11.612;2023-06-14T10:25:57;23.60;68.80
22795;DHT22;11564;50.920;11.612;2023-06-14T10:28:23;23.50;68.70
22795;DHT22;11564;50.920;11.612;2023-06-14T10:33:33;23.30;68.60
22795;DHT22;11564;50.920;11.612;2023-06-14T10:39:13;23.80;68.90
22795;DHT22;11564;50.920;11.612;2023-06-14T10:41:40;24.00;66.70
22795;DHT22;11564;50.920;11.612;2023-06-14T10:46:39;24.10;68.70
22795;DHT22;11564;50.920;11.612;2023-06-14T10:49:05;24.40;66.50
22795;DHT22;11564;50.920;11.612;2023-06-14T10:51:39;24.80;67.30
22795;DHT22;11564;50.920;11.612;2023-06-14T10:54:17;24.90;66.40
22795;DHT22;11564;50.920;11.612;2023-06-14T10:56:50;25.00;63.60
22795;DHT22;11564;50.920;11.612;2023-06-14T10:59:17;24.80;63.30
22795;DHT22;11564;50.920;11.612;2023-06-14T11:04:52;24.60;63.30
22795;DHT22;11564;50.920;11.612;2023-06-14T11:10:10;24.60;62.20
22795;DHT22;11564;50.920;11.612;2023-06-14T11:12:47;24.40;63.80
22795;DHT22;11564;50.920;11.612;2023-06-14T11:15:13;24.30;62.60
22795;DHT22;11564;50.920;11.612;2023-06-14T11:17:38;24.40;62.70
22795;DHT22;11564;50.920;11.612;2023-06-14T11:20:09;24.90;63.40
22795;DHT22;11564;50.920;11.612;2023-06-14T11:22:44;25.10;61.50
22795;DHT22;11564;50.920;11.612;2023-06-14T11:25:11;25.20;61.90
22795;DHT22;11564;50.920;11.612;2023-06-14T11:27:36;25.50;60.60
22795;DHT22;11564;50.920;11.612;2023-06-14T11:30:03;25.40;59.90
22795;DHT22;11564;50.920;11.612;2023-06-14T11:32:31;25.70;60.50
22795;DHT22;11564;50.920;11.612;2023-06-14T11:34:56;25.90;57.60
22795;DHT22;11564;50.920;11.612;2023-06-14T11:37:25;26.00;58.80
22795;DHT22;11564;50.920;11.612;2023-06-14T11:39:51;25.00;59.80
22795;DHT22;11564;50.920;11.612;2023-06-14T11:42:17;25.20;59.70
22795;DHT22;11564;50.920;11.612;2023-06-14T11:44:46;25.40;60.20
22795;DHT22;11564;50.920;11.612;2023-06-14T11:47:12;25.50;59.40
22795;DHT22;11564;50.920;11.612;2023-06-14T11:49:38;25.90;58.80
22795;DHT22;11564;50.920;11.612;2023-06-14T11:52:04;26.30;57.90
22795;DHT22;11564;50.920;11.612;2023-06-14T11:54:31;24.30;57.30
22795;DHT22;11564;50.920;11.612;2023-06-14T11:56:57;24.70;58.90
22795;DHT22;11564;50.920;11.612;2023-06-14T11:59:24;25.10;58.10
22795;DHT22;11564;50.920;11.612;2023-06-14T12:01:49;25.50;58.20
22795;DHT22;11564;50.920;11.612;2023-06-14T12:04:26;25.90;58.10
22795;DHT22;11564;50.920;11.612;2023-06-14T12:06:52;25.40;57.40
22795;DHT22;11564;50.920;11.612;2023-06-14T12:09:18;25.90;59.00
22795;DHT22;11564;50.920;11.612;2023-06-14T12:11:45;25.90;57.10
22795;DHT22;11564;50.920;11.612;2023-06-14T12:14:11;25.20;58.70
22795;DHT22;11564;50.920;11.612;2023-06-14T12:16:40;24.70;57.60
22795;DHT22;11564;50.920;11.612;2023-06-14T12:19:16;23.80;60.50
22795;DHT22;11564;50.920;11.612;2023-06-14T12:21:45;23.90;60.30
22795;DHT22;11564;50.920;11.612;2023-06-14T12:24:13;24.20;59.90
22795;DHT22;11564;50.920;11.612;2023-06-14T12:26:40;24.70;58.20
22795;DHT22;11564;50.920;11.612;2023-06-14T12:29:06;24.90;59.30
22795;DHT22;11564;50.920;11.612;2023-06-14T12:31:35;25.40;58.50
22795;DHT22;11564;50.920;11.612;2023-06-14T12:34:01;25.80;57.90
22795;DHT22;11564;50.920;11.612;2023-06-14T12:36:26;25.70;54.20
22795;DHT22;11564;50.920;11.612;2023-06-14T12:38:52;26.10;55.30
22795;DHT22;11564;50.920;11.612;2023-06-14T12:41:20;25.50;54.50
22795;DHT22;11564;50.920;11.612;2023-06-14T12:43:47;25.80;55.60
22795;DHT22;11564;50.920;11.612;2023-06-14T12:46:13;25.80;57.30
22795;DHT22;11564;50.920;11.612;2023-06-14T12:48:38;25.90;56.50
22795;DHT22;11564;50.920;11.612;2023-06-14T12:51:04;26.30;56.60
22795;DHT22;11564;50.920;11.612;2023-06-14T12:53:30;26.50;57.40
22795;DHT22;11564;50.920;11.612;2023-06-14T12:55:56;26.80;54.80
22795;DHT22;11564;50.920;11.612;2023-06-14T12:58:21;25.80;53.70
22795;DHT22;11564;50.920;11.612;2023-06-14T13:00:49;25.80;57.10
22795;DHT22;11564;50.920;11.612;2023-06-14T13:03:15;26.10;57.00
22795;DHT22;11564;50.920;11.612;2023-06-14T13:05:40;26.50;56.30
22795;DHT22;11564;50.920;11.612;2023-06-14T13:08:07;26.80;55.20
22795;DHT22;11564;50.920;11.612;2023-06-14T13:10:36;27.20;52.80
22795;DHT22;11564;50.920;11.612;2023-06-14T13:13:02;26.70;53.00
22795;DHT22;11564;50.920;11.612;2023-06-14T13:15:28;27.00;54.60
22795;DHT22;11564;50.920;11.612;2023-06-14T13:17:53;27.50;54.10
22795;DHT22;11564;50.920;11.612;2023-06-14T13:20:19;28.90;52.60
22795;DHT22;11564;50.920;11.612;2023-06-14T13:22:45;30.60;51.70
22795;DHT22;11564;50.920;11.612;2023-06-14T13:25:10;32.40;48.70
22795;DHT22;11564;50.920;11.612;2023-06-14T13:27:36;34.90;47.00
22795;DHT22;11564;50.920;11.612;2023-06-14T13:30:03;37.00;42.00
22795;DHT22;11564;50.920;11.612;2023-06-14T13:32:30;39.10;40.90
22795;DHT22;11564;50.920;11.612;2023-06-14T13:34:56;40.60;37.20
22795;DHT22;11564;50.920;11.612;2023-06-14T13:37:22;41.90;34.80
22795;DHT22;11564;50.920;11.612;2023-06-14T13:39:47;40.60;34.60
22795;DHT22;11564;50.920;11.612;2023-06-14T13:42:13;41.10;35.30
22795;DHT22;11564;50.920;11.612;2023-06-14T13:44:38;39.60;35.00
22795;DHT22;11564;50.920;11.612;2023-06-14T13:47:05;36.40;37.10
22795;DHT22;11564;50.920;11.612;2023-06-14T13:49:31;34.30;38.30
22795;DHT22;11564;50.920;11.612;2023-06-14T13:51:56;35.80;38.10
22795;DHT22;11564;50.920;11.612;2023-06-14T13:54:23;39.30;37.50
22795;DHT22;11564;50.920;11.612;2023-06-14T13:56:48;41.60;34.60
22795;DHT22;11564;50.920;11.612;2023-06-14T13:59:14;42.30;33.20
22795;DHT22;11564;50.920;11.612;2023-06-14T14:01:40;39.70;33.10
22795;DHT22;11564;50.920;11.612;2023-06-14T14:04:05;40.10;33.50
22795;DHT22;11564;50.920;11.612;2023-06-14T14:06:31;42.20;32.20
22795;DHT22;11564;50.920;11.612;2023-06-14T14:08:57;43.60;30.70
22795;DHT22;11564;50.920;11.612;2023-06-14T14:11:23;44.90;31.30
22795;DHT22;11564;50.920;11.612;2023-06-14T14:13:49;45.50;30.00
22795;DHT22;11564;50.920;11.612;2023-06-14T14:16:15;43.40;30.20
22795;DHT22;11564;50.920;11.612;2023-06-14T14:18:40;38.80;32.90
22795;DHT22;11564;50.920;11.612;2023-06-14T14:21:06;35.80;36.50
22795;DHT22;11564;50.920;11.612;2023-06-14T14:23:32;37.40;35.60
22795;DHT22;11564;50.920;11.612;2023-06-14T14:25:58;40.20;34.70
22795;DHT22;11564;50.920;11.612;2023-06-14T14:28:23;41.80;32.50
22795;DHT22;11564;50.920;11.612;2023-06-14T14:30:49;41.20;31.70
22795;DHT22;11564;50.920;11.612;2023-06-14T14:33:15;42.80;32.20
22795;DHT22;11564;50.920;11.612;2023-06-14T14:35:45;43.70;30.60
22795;DHT22;11564;50.920;11.612;2023-06-14T14:38:12;44.70;30.60
22795;DHT22;11564;50.920;11.612;2023-06-14T14:40:39;44.90;29.50
22795;DHT22;11564;50.920;11.612;2023-06-14T14:43:05;41.20;31.60
22795;DHT22;11564;50.920;11.612;2023-06-14T14:45:31;38.20;34.00
22795;DHT22;11564;50.920;11.612;2023-06-14T14:47:56;36.20;36.00
22795;DHT22;11564;50.920;11.612;2023-06-14T14:50:22;36.80;36.00
22795;DHT22;11564;50.920;11.612;2023-06-14T14:52:48;39.30;33.50
22795;DHT22;11564;50.920;11.612;2023-06-14T14:55:14;40.90;34.10
22795;DHT22;11564;50.920;11.612;2023-06-14T14:57:39;42.60;31.30
22795;DHT22;11564;50.920;11.612;2023-06-14T15:00:06;42.90;31.70
22795;DHT22;11564;50.920;11.612;2023-06-14T15:02:31;44.80;30.20
22795;DHT22;11564;50.920;11.612;2023-06-14T15:04:57;44.90;29.90
22795;DHT22;11564;50.920;11.612;2023-06-14T15:07:27;44.60;29.70
22795;DHT22;11564;50.920;11.612;2023-06-14T15:09:53;44.80;29.80
22795;DHT22;11564;50.920;11.612;2023-06-14T15:12:19;44.90;29.70
22795;DHT22;11564;50.920;11.612;2023-06-14T15:14:45;42.20;29.90
22795;DHT22;11564;50.920;11.612;2023-06-14T15:17:11;38.60;32.70
22795;DHT22;11564;50.920;11.612;2023-06-14T15:19:37;35.60;34.50
22795;DHT22;11564;50.920;11.612;2023-06-14T15:22:02;33.60;37.60
22795;DHT22;11564;50.920;11.612;2023-06-14T15:24:28;31.50;39.00
22795;DHT22;11564;50.920;11.612;2023-06-14T15:26:56;30.20;42.20
22795;DHT22;11564;50.920;11.612;2023-06-14T15:29:21;28.90;43.40
22795;DHT22;11564;50.920;11.612;2023-06-14T15:31:47;28.30;44.40
22795;DHT22;11564;50.920;11.612;2023-06-14T15:34:14;30.50;43.70
22795;DHT22;11564;50.920;11.612;2023-06-14T15:36:39;32.80;40.50
22795;DHT22;11564;50.920;11.612;2023-06-14T15:39:05;36.10;37.50
22795;DHT22;11564;50.920;11.612;2023-06-14T15:41:31;37.40;36.90